createdAt,value
2018-12-12T00:01:44.064Z,6.20
2018-12-12T00:04:11.184Z,6.20
2018-12-12T00:06:45.206Z,6.40
2018-12-12T00:09:12.187Z,6.20
2018-12-12T00:11:39.104Z,6.40
2018-12-12T00:14:06.145Z,6.30
2018-12-12T00:16:33.066Z,6.30
2018-12-12T00:19:00.065Z,6.40
2018-12-12T00:21:27.064Z,6.10
2018-12-12T00:23:54.105Z,6.20
2018-12-12T00:26:21.084Z,6.20
2018-12-12T00:28:48.105Z,6.30
2018-12-12T00:31:15.085Z,6.20
2018-12-12T00:33:42.426Z,6.30
2018-12-12T00:36:09.385Z,6.20
2018-12-12T00:38:36.485Z,6.40
2018-12-12T00:41:03.485Z,6.30
2018-12-12T00:43:30.486Z,6.10
2018-12-12T00:45:57.424Z,6.30
2018-12-12T00:48:25.205Z,6.30
2018-12-12T00:50:52.165Z,6.30
2018-12-12T00:53:19.184Z,6.30
2018-12-12T00:55:46.410Z,6.40
2018-12-12T00:58:13.865Z,6.30
2018-12-12T01:00:40.844Z,6.20
2018-12-12T01:03:07.844Z,6.20
2018-12-12T01:05:34.864Z,6.20
2018-12-12T01:08:01.864Z,6.10
2018-12-12T01:10:28.829Z,6.30
2018-12-12T01:12:55.925Z,6.40
2018-12-12T01:15:22.925Z,6.40
2018-12-12T01:17:49.946Z,6.30
2018-12-12T01:20:16.946Z,6.30
2018-12-12T01:22:43.945Z,6.30
2018-12-12T01:25:11.305Z,6.20
2018-12-12T01:27:38.245Z,6.20
2018-12-12T01:30:05.644Z,6.30
2018-12-12T01:32:32.585Z,6.10
2018-12-12T01:34:59.565Z,6.20
2018-12-12T01:37:26.726Z,6.00
2018-12-12T01:39:53.865Z,6.30
2018-12-12T01:42:20.825Z,6.00
2018-12-12T01:44:47.805Z,6.20
2018-12-12T01:47:15.665Z,6.10
2018-12-12T01:49:42.685Z,6.00
2018-12-12T01:52:09.706Z,6.30
2018-12-12T01:54:43.685Z,6.10
2018-12-12T01:57:10.685Z,6.10
2018-12-12T01:59:37.665Z,6.20
2018-12-12T02:02:04.706Z,6.30
2018-12-12T02:04:31.744Z,6.10
2018-12-12T02:06:58.745Z,6.20
2018-12-12T02:09:25.756Z,6.20
2018-12-12T02:11:52.805Z,6.30
2018-12-12T02:14:19.794Z,6.10
2018-12-12T02:16:46.765Z,6.10
2018-12-12T02:19:13.886Z,6.20
2018-12-12T02:21:40.865Z,6.00
2018-12-12T02:24:07.945Z,6.20
2018-12-12T02:26:34.945Z,6.00
2018-12-12T02:29:01.906Z,6.20
2018-12-12T02:31:28.826Z,6.30
2018-12-12T02:33:55.805Z,6.20
2018-12-12T02:36:22.830Z,6.20
2018-12-12T02:38:49.907Z,6.20
2018-12-12T02:41:17.389Z,6.20
2018-12-12T02:43:44.528Z,6.30
2018-12-12T02:46:11.566Z,6.20
2018-12-12T02:48:38.555Z,6.10
2018-12-12T02:51:05.548Z,6.10
2018-12-12T02:53:32.507Z,6.10
2018-12-12T02:55:59.566Z,6.30
2018-12-12T02:58:26.544Z,6.30
2018-12-12T03:00:53.525Z,6.10
2018-12-12T03:03:20.487Z,6.20
2018-12-12T03:05:47.526Z,6.20
2018-12-12T03:08:14.546Z,6.10
2018-12-12T03:10:41.545Z,6.40
2018-12-12T03:13:08.505Z,6.40
2018-12-12T03:15:42.445Z,6.30
2018-12-12T03:18:09.704Z,6.20
2018-12-12T03:20:36.687Z,6.30
2018-12-12T03:23:03.633Z,6.20
2018-12-12T03:25:30.665Z,6.10
2018-12-12T03:27:57.646Z,6.30
2018-12-12T03:30:24.627Z,6.30
2018-12-12T03:32:51.627Z,6.10
2018-12-12T03:35:18.631Z,6.30
2018-12-12T03:37:45.585Z,6.30
2018-12-12T03:40:12.745Z,6.30
2018-12-12T03:42:40.192Z,6.10
2018-12-12T03:45:07.705Z,6.10
2018-12-12T03:47:34.905Z,6.20
2018-12-12T03:50:01.945Z,6.40
2018-12-12T03:52:28.946Z,6.20
2018-12-12T03:54:55.905Z,6.30
2018-12-12T03:57:22.906Z,6.10
2018-12-12T03:59:49.946Z,6.10
2018-12-12T04:02:16.966Z,6.10
2018-12-12T04:04:43.966Z,6.20
2018-12-12T04:07:10.925Z,6.30
2018-12-12T04:09:37.945Z,6.00
2018-12-12T04:12:04.817Z,6.00
2018-12-12T04:14:38.929Z,6.20
2018-12-12T04:17:06.664Z,6.10
2018-12-12T04:19:33.648Z,6.10
2018-12-12T04:22:01.345Z,6.10
2018-12-12T04:24:28.624Z,6.10
2018-12-12T04:26:55.605Z,5.80
2018-12-12T04:29:22.586Z,6.00
2018-12-12T04:31:49.504Z,6.00
2018-12-12T04:34:17.028Z,6.00
2018-12-12T04:36:43.943Z,6.10
2018-12-12T04:39:10.924Z,6.20
2018-12-12T04:41:37.944Z,6.20
2018-12-12T04:44:04.944Z,6.10
2018-12-12T04:46:32.730Z,6.00
2018-12-12T04:48:59.744Z,6.20
2018-12-12T04:51:26.924Z,6.10
2018-12-12T04:53:53.945Z,6.00
2018-12-12T04:56:20.864Z,6.10
2018-12-12T04:58:47.918Z,6.10
2018-12-12T05:01:15.345Z,6.20
2018-12-12T05:03:42.384Z,6.10
2018-12-12T05:06:09.323Z,6.10
2018-12-12T05:08:36.284Z,6.00
2018-12-12T05:11:03.264Z,6.20
2018-12-12T05:13:30.285Z,6.30
2018-12-12T05:15:57.263Z,6.20
2018-12-12T05:18:24.284Z,5.80
2018-12-12T05:20:51.364Z,6.00
2018-12-12T05:23:18.406Z,6.00
2018-12-12T05:25:45.424Z,5.90
2018-12-12T05:28:12.443Z,6.10
2018-12-12T05:30:39.584Z,6.00
2018-12-12T05:33:06.724Z,6.10
2018-12-12T05:35:40.624Z,6.00
2018-12-12T05:38:14.645Z,6.10
2018-12-12T05:40:42.064Z,6.10
2018-12-12T05:43:09.123Z,6.20
2018-12-12T05:45:36.784Z,6.10
2018-12-12T05:48:03.963Z,5.90
2018-12-12T05:50:30.965Z,5.90
2018-12-12T05:52:58.004Z,6.10
2018-12-12T05:55:24.943Z,6.00
2018-12-12T05:57:51.964Z,6.00
2018-12-12T06:00:18.944Z,5.90
2018-12-12T06:02:45.984Z,5.90
2018-12-12T06:05:12.924Z,5.90
2018-12-12T06:07:39.963Z,5.90
2018-12-12T06:10:07.745Z,5.90
2018-12-12T06:12:34.746Z,5.80
2018-12-12T06:15:06.403Z,5.80
2018-12-12T06:17:33.424Z,5.80
2018-12-12T06:20:00.785Z,5.90
2018-12-12T06:22:29.006Z,6.00
2018-12-12T06:24:56.025Z,6.20
2018-12-12T06:27:23.024Z,6.20
2018-12-12T06:29:50.145Z,6.30
2018-12-12T06:32:17.125Z,6.30
2018-12-12T06:34:44.145Z,6.40
2018-12-12T06:37:11.105Z,6.40
2018-12-12T06:39:38.105Z,6.50
2018-12-12T06:42:05.164Z,6.30
2018-12-12T06:44:32.145Z,6.20
2018-12-12T06:46:59.284Z,6.30
2018-12-12T06:49:33.244Z,6.40
2018-12-12T06:52:00.289Z,6.20
2018-12-12T06:54:27.265Z,6.30
2018-12-12T06:56:54.264Z,6.00
2018-12-12T06:59:21.304Z,6.30
2018-12-12T07:01:48.484Z,6.20
2018-12-12T07:04:15.505Z,5.90
2018-12-12T07:06:42.495Z,6.10
2018-12-12T07:09:10.005Z,5.90
2018-12-12T07:11:37.004Z,5.90
2018-12-12T07:14:04.584Z,5.90
2018-12-12T07:16:31.647Z,5.80
2018-12-12T07:18:58.666Z,5.60
2018-12-12T07:21:25.684Z,5.50
2018-12-12T07:23:52.665Z,5.60
2018-12-12T07:26:19.630Z,5.50
2018-12-12T07:28:46.745Z,5.70
2018-12-12T07:31:13.684Z,5.70
2018-12-12T07:33:41.106Z,5.70
2018-12-12T07:36:08.105Z,5.70
2018-12-12T07:38:35.064Z,5.70
2018-12-12T07:41:02.105Z,5.70
2018-12-12T07:43:29.050Z,5.70
2018-12-12T07:45:56.063Z,5.90
2018-12-12T07:48:23.045Z,6.20
2018-12-12T07:50:50.064Z,6.10
2018-12-12T07:53:17.058Z,6.10
2018-12-12T07:55:44.044Z,6.30
2018-12-12T07:58:11.025Z,6.20
2018-12-12T08:00:38.024Z,6.30
2018-12-12T08:03:06.571Z,6.50
2018-12-12T08:05:34.626Z,6.20
2018-12-12T08:08:01.970Z,6.40
2018-12-12T08:10:36.265Z,6.40
2018-12-12T08:13:03.284Z,6.60
2018-12-12T08:15:30.344Z,6.60
2018-12-12T08:17:57.385Z,6.60
2018-12-12T08:20:24.406Z,6.70
2018-12-12T08:22:51.544Z,6.60
2018-12-12T08:25:19.345Z,6.70
2018-12-12T08:27:53.245Z,6.70
2018-12-12T08:30:20.405Z,6.80
2018-12-12T08:32:47.567Z,6.70
2018-12-12T08:37:46.991Z,6.80
2018-12-12T08:40:15.151Z,7.00
2018-12-12T08:42:42.111Z,7.10
2018-12-12T08:45:09.172Z,7.20
2018-12-12T08:47:36.213Z,7.10
2018-12-12T08:50:05.817Z,7.40
2018-12-12T08:52:32.892Z,7.20
2018-12-12T08:54:59.881Z,7.20
2018-12-12T08:57:35.091Z,7.30
2018-12-12T09:00:03.412Z,7.30
2018-12-12T09:02:30.372Z,7.00
2018-12-12T09:04:57.413Z,7.10
2018-12-12T09:07:24.412Z,7.30
2018-12-12T09:09:51.412Z,7.20
2018-12-12T09:12:18.454Z,7.40
2018-12-12T09:14:45.413Z,7.30
2018-12-12T09:17:12.452Z,7.10
2018-12-12T09:19:39.424Z,7.20
2018-12-12T09:22:06.373Z,7.40
2018-12-12T09:24:33.412Z,7.40
2018-12-12T09:27:03.333Z,7.40
2018-12-12T09:29:30.494Z,7.40
2018-12-12T09:32:04.672Z,7.60
2018-12-12T09:34:31.732Z,7.80
2018-12-12T09:36:58.732Z,7.70
2018-12-12T09:39:25.755Z,7.90
2018-12-12T09:41:53.294Z,7.90
2018-12-12T09:44:20.352Z,7.90
2018-12-12T09:46:47.392Z,8.00
2018-12-12T09:49:14.311Z,7.90
2018-12-12T09:51:48.252Z,8.10
2018-12-12T09:54:29.211Z,8.00
2018-12-12T09:56:56.211Z,7.90
2018-12-12T09:59:23.233Z,8.00
2018-12-12T10:01:50.251Z,8.10
2018-12-12T10:04:17.291Z,8.10
2018-12-12T10:06:44.412Z,8.30
2018-12-12T10:09:11.791Z,8.10
2018-12-12T10:11:38.792Z,8.10
2018-12-12T10:14:05.791Z,8.20
2018-12-12T10:16:33.432Z,8.40
2018-12-12T10:19:07.432Z,8.20
2018-12-12T10:21:34.472Z,8.10
2018-12-12T10:24:01.532Z,8.10
2018-12-12T10:26:28.933Z,8.20
2018-12-12T10:28:57.172Z,8.20
2018-12-12T10:31:24.512Z,8.40
2018-12-12T10:33:51.591Z,8.50
2018-12-12T10:36:18.671Z,8.70
2018-12-12T10:38:45.632Z,8.20
2018-12-12T10:41:13.311Z,8.40
2018-12-12T10:43:40.353Z,8.60
2018-12-12T10:46:07.392Z,8.70
2018-12-12T10:48:34.372Z,8.90
2018-12-12T10:51:01.332Z,8.80
2018-12-12T10:53:28.431Z,9.00
2018-12-12T10:55:55.412Z,9.00
2018-12-12T10:58:29.413Z,9.00
2018-12-12T11:01:02.454Z,9.00
2018-12-12T11:03:32.513Z,8.80
2018-12-12T11:05:59.493Z,8.80
2018-12-12T11:08:26.513Z,8.60
2018-12-12T11:10:53.552Z,8.30
2018-12-12T11:13:20.553Z,8.40
2018-12-12T11:15:47.497Z,8.50
2018-12-12T11:18:14.473Z,8.40
2018-12-12T11:20:41.496Z,8.60
2018-12-12T11:23:08.497Z,8.20
2018-12-12T11:25:35.497Z,8.10
2018-12-12T11:28:02.516Z,8.10
2018-12-12T11:30:29.553Z,8.10
2018-12-12T11:32:56.493Z,7.90
2018-12-12T11:35:23.513Z,8.00
2018-12-12T11:37:50.534Z,8.10
2018-12-12T11:40:17.593Z,7.70
2018-12-12T11:42:44.533Z,7.60
2018-12-12T11:45:11.592Z,7.80
2018-12-12T11:47:38.953Z,7.80
2018-12-12T11:50:06.133Z,7.80
2018-12-12T11:52:33.041Z,7.50
2018-12-12T11:55:00.072Z,7.50
2018-12-12T11:57:27.392Z,7.70
2018-12-12T11:59:54.412Z,7.60
2018-12-12T12:02:21.414Z,7.60
2018-12-12T12:04:48.412Z,7.50
2018-12-12T12:07:15.401Z,7.60
2018-12-12T12:09:42.381Z,7.60
2018-12-12T12:12:09.413Z,7.80
2018-12-12T12:14:36.434Z,7.80
2018-12-12T12:17:03.453Z,7.80
2018-12-12T12:19:30.433Z,7.80
2018-12-12T12:21:57.415Z,7.90
2018-12-12T12:24:24.473Z,7.60
2018-12-12T12:26:51.492Z,7.80
2018-12-12T12:29:25.713Z,7.60
2018-12-12T12:31:52.992Z,7.80
2018-12-12T12:34:26.913Z,7.70
2018-12-12T12:36:53.933Z,7.60
2018-12-12T12:39:20.913Z,7.50
2018-12-12T12:41:54.752Z,7.80
2018-12-12T12:44:21.773Z,7.80
2018-12-12T12:46:48.773Z,7.70
2018-12-12T12:49:22.813Z,7.70
2018-12-12T12:51:49.815Z,7.80
2018-12-12T12:54:16.773Z,7.70
2018-12-12T12:56:43.794Z,7.70
2018-12-12T12:59:11.173Z,7.80
2018-12-12T13:01:38.202Z,7.60
2018-12-12T13:04:09.626Z,7.60
2018-12-12T13:06:34.213Z,7.60
2018-12-12T13:09:01.252Z,7.70
2018-12-12T13:11:28.273Z,7.60
2018-12-12T13:13:55.222Z,7.60
2018-12-12T13:16:22.173Z,7.50
2018-12-12T13:18:49.173Z,7.60
2018-12-12T13:21:23.254Z,7.60
2018-12-12T13:23:50.253Z,7.50
2018-12-12T13:26:17.213Z,7.50
2018-12-12T13:28:44.175Z,7.50
2018-12-12T13:31:11.295Z,7.50
2018-12-12T13:33:38.295Z,7.50
2018-12-12T13:36:05.336Z,7.40
2018-12-12T13:38:32.417Z,7.50
2018-12-12T13:40:59.356Z,7.40
2018-12-12T13:43:26.383Z,7.50
2018-12-12T13:45:53.377Z,7.50
2018-12-12T13:48:20.296Z,7.40
2018-12-12T13:50:47.298Z,7.50
2018-12-12T13:53:14.336Z,7.30
2018-12-12T13:55:41.296Z,7.20
2018-12-12T13:58:08.256Z,7.20
2018-12-12T14:00:39.111Z,7.30
2018-12-12T14:03:04.636Z,7.40
2018-12-12T14:05:33.276Z,7.20
2018-12-12T14:08:00.276Z,7.20
2018-12-12T14:10:27.196Z,7.50
2018-12-12T14:12:54.297Z,7.40
2018-12-12T14:15:21.303Z,7.30
2018-12-12T14:17:55.305Z,7.20
2018-12-12T14:20:22.243Z,7.20
2018-12-12T14:22:49.287Z,7.40
2018-12-12T14:25:16.303Z,7.30
2018-12-12T14:27:43.323Z,7.30
2018-12-12T14:30:10.253Z,7.20
2018-12-12T14:32:37.204Z,7.00
2018-12-12T14:35:04.943Z,7.20
2018-12-12T14:37:32.083Z,7.30
2018-12-12T14:39:59.023Z,7.00
2018-12-12T14:42:26.043Z,7.00
2018-12-12T14:44:53.023Z,7.20
2018-12-12T14:47:20.063Z,7.30
2018-12-12T14:49:53.958Z,7.00
2018-12-12T14:52:20.826Z,7.00
2018-12-12T14:54:48.690Z,7.00
2018-12-12T14:57:16.506Z,7.20
2018-12-12T14:59:43.724Z,6.70
2018-12-12T15:02:10.762Z,6.70
2018-12-12T15:04:44.693Z,6.70
2018-12-12T15:07:11.674Z,6.90
2018-12-12T15:09:39.010Z,6.80
2018-12-12T15:12:06.832Z,6.90
2018-12-12T15:14:33.826Z,6.80
2018-12-12T15:17:00.766Z,6.60
2018-12-12T15:19:34.826Z,6.60
2018-12-12T15:22:02.127Z,6.60
2018-12-12T15:24:36.043Z,6.60
2018-12-12T15:27:02.969Z,6.40
2018-12-12T15:29:29.949Z,6.30
2018-12-12T15:31:56.947Z,6.10
2018-12-12T15:34:23.946Z,6.20
2018-12-12T15:36:51.026Z,6.20
2018-12-12T15:39:17.846Z,6.30
2018-12-12T15:41:45.545Z,6.10
2018-12-12T15:44:12.571Z,6.20
2018-12-12T15:46:39.607Z,6.20
2018-12-12T15:49:06.737Z,6.20
2018-12-12T15:51:33.679Z,6.30
2018-12-12T15:54:00.637Z,6.10
2018-12-12T15:56:27.679Z,6.20
2018-12-12T15:58:54.737Z,6.30
2018-12-12T16:01:21.697Z,6.10
2018-12-12T16:03:48.680Z,6.00
2018-12-12T16:06:15.658Z,6.00
2018-12-12T16:08:42.637Z,5.80
2018-12-12T16:11:09.537Z,5.70
2018-12-12T16:13:36.606Z,5.70
2018-12-12T16:16:03.717Z,5.50
2018-12-12T16:18:30.760Z,5.50
2018-12-12T16:20:57.732Z,5.40
2018-12-12T16:23:24.798Z,5.40
2018-12-12T16:25:52.388Z,5.30
2018-12-12T16:28:19.387Z,5.30
2018-12-12T16:30:46.327Z,5.30
2018-12-12T16:33:13.368Z,5.30
2018-12-12T16:35:40.429Z,5.20
2018-12-12T16:38:07.367Z,5.30
2018-12-12T16:40:34.422Z,5.30
2018-12-12T16:43:01.403Z,5.40
2018-12-12T16:45:28.740Z,5.40
2018-12-12T16:47:55.701Z,5.40
2018-12-12T16:50:22.625Z,5.30
2018-12-12T16:52:49.663Z,5.40
2018-12-12T16:55:16.755Z,5.40
2018-12-12T16:57:43.934Z,5.40
2018-12-12T17:02:42.793Z,5.30
2018-12-12T17:05:09.798Z,5.40
2018-12-12T18:57:25.275Z,5.50
2018-12-12T18:59:52.311Z,5.50
2018-12-12T19:02:19.691Z,5.50
2018-12-12T19:04:46.732Z,5.40
2018-12-12T19:07:13.601Z,5.60
2018-12-12T19:09:40.581Z,5.60
2018-12-12T19:12:07.936Z,5.60
2018-12-12T19:14:36.977Z,5.50
2018-12-12T19:17:04.015Z,5.60
2018-12-12T19:19:30.996Z,5.60
2018-12-12T19:21:57.975Z,5.50
2018-12-12T19:24:25.286Z,5.50
2018-12-12T19:26:52.275Z,5.50
2018-12-12T19:29:19.195Z,5.50
2018-12-12T19:31:46.234Z,5.60
2018-12-12T19:34:13.196Z,5.50
2018-12-12T19:36:40.195Z,5.70
2018-12-12T19:39:07.764Z,5.70
2018-12-12T19:41:34.975Z,5.60
2018-12-12T19:44:02.078Z,5.50
2018-12-12T19:46:29.235Z,5.60
2018-12-12T19:48:56.754Z,5.60
2018-12-12T19:51:23.875Z,5.50
2018-12-12T19:53:51.037Z,5.50
2018-12-12T19:56:25.024Z,5.60
2018-12-12T19:58:52.543Z,5.50
2018-12-12T20:01:19.896Z,5.50
2018-12-12T20:03:47.943Z,5.50
2018-12-12T20:06:16.122Z,5.50
2018-12-12T20:08:43.304Z,5.50
2018-12-12T20:11:10.502Z,5.50
2018-12-12T20:13:38.862Z,5.50
2018-12-12T20:16:12.941Z,5.40
2018-12-12T20:18:40.104Z,5.40
2018-12-12T20:21:07.223Z,5.40
2018-12-12T20:23:34.263Z,5.40
2018-12-12T20:26:01.351Z,5.40
2018-12-12T20:28:28.362Z,5.40
2018-12-12T20:30:55.322Z,5.40
2018-12-12T20:33:22.375Z,5.50
2018-12-12T20:35:49.396Z,5.50
2018-12-12T20:38:16.450Z,5.50
2018-12-12T20:40:43.469Z,5.50
2018-12-12T20:43:10.529Z,5.60
2018-12-12T20:45:37.930Z,5.50
2018-12-12T20:48:04.988Z,5.40
2018-12-12T20:50:38.970Z,5.40
2018-12-12T20:53:05.950Z,5.40
2018-12-12T20:55:32.931Z,5.30
2018-12-12T20:57:59.988Z,5.30
2018-12-12T21:00:27.249Z,5.40
2018-12-12T21:02:54.291Z,5.40
2018-12-12T21:05:21.429Z,5.30
2018-12-12T21:07:48.609Z,5.30
2018-12-12T21:10:15.830Z,5.30
2018-12-12T21:12:42.893Z,5.30
2018-12-12T21:15:09.970Z,5.30
2018-12-12T21:17:44.009Z,5.30
2018-12-12T21:20:11.088Z,5.30
2018-12-12T21:22:38.207Z,5.30
2018-12-12T21:25:05.748Z,5.40
2018-12-12T21:27:32.790Z,5.30
2018-12-12T21:29:59.908Z,5.30
2018-12-12T21:32:27.368Z,5.40
2018-12-12T21:34:54.309Z,5.30
2018-12-12T21:37:21.307Z,5.30
2018-12-12T21:39:48.351Z,5.50
2018-12-12T21:42:15.370Z,5.50
2018-12-12T21:44:42.430Z,5.60
2018-12-12T21:47:09.389Z,5.70
2018-12-12T21:49:36.347Z,5.70
2018-12-12T21:52:03.574Z,5.60
2018-12-12T21:54:30.637Z,5.70
2018-12-12T21:56:57.635Z,5.70
2018-12-12T21:59:24.693Z,5.40
2018-12-12T22:01:51.974Z,5.40
2018-12-12T22:04:18.934Z,5.20
2018-12-12T22:06:45.975Z,5.30
2018-12-12T22:09:13.014Z,5.30
2018-12-12T22:11:40.455Z,5.20
2018-12-12T22:14:07.414Z,5.30
2018-12-12T22:16:34.374Z,5.30
2018-12-12T22:19:01.373Z,5.30
2018-12-12T22:21:28.373Z,5.40
2018-12-12T22:23:55.353Z,5.50
2018-12-12T22:26:22.313Z,5.50
2018-12-12T22:28:49.353Z,5.50
2018-12-12T22:31:16.413Z,5.50
2018-12-12T22:33:43.376Z,5.50
2018-12-12T22:36:14.156Z,5.50
2018-12-12T22:38:39.654Z,5.50
2018-12-12T22:41:06.697Z,5.40
2018-12-12T22:43:33.653Z,5.40
2018-12-12T22:46:00.771Z,5.50
2018-12-12T22:48:27.734Z,5.50
2018-12-12T22:50:55.193Z,5.50
2018-12-12T22:53:22.214Z,5.40
2018-12-12T22:55:49.253Z,5.50
2018-12-12T22:58:16.233Z,5.50
2018-12-12T23:00:46.694Z,5.40
2018-12-12T23:03:13.653Z,5.30
2018-12-12T23:05:40.712Z,5.40
2018-12-12T23:08:07.733Z,5.30
2018-12-12T23:10:35.114Z,5.30
2018-12-12T23:13:02.155Z,5.30
2018-12-12T23:15:29.155Z,5.40
2018-12-12T23:17:56.255Z,5.40
2018-12-12T23:20:23.276Z,5.50
2018-12-12T23:22:50.334Z,5.50
2018-12-12T23:25:17.303Z,5.50
2018-12-12T23:27:44.335Z,5.50
2018-12-12T23:30:11.416Z,5.50
2018-12-12T23:32:38.455Z,5.50
2018-12-12T23:35:05.633Z,5.60
2018-12-12T23:37:32.636Z,5.60
2018-12-12T23:40:06.516Z,5.60
2018-12-12T23:42:33.593Z,5.60
2018-12-12T23:45:00.615Z,5.70
2018-12-12T23:47:27.655Z,5.70
2018-12-12T23:49:54.634Z,5.70
2018-12-12T23:52:21.715Z,5.70
2018-12-12T23:54:48.674Z,5.70
2018-12-12T23:57:15.698Z,5.60
2018-12-12T23:59:42.675Z,5.60
